Aérodrome :
LOGIN :

S'inscrire | Disclaimer

   EN    FR    IT 

 










Légende :    VFR   VFR Marginal   IFR   IFR Intensif   IFR Très Intensif
Visi : 
Plafond : 
>= 8 km
>= 3000ft
5 à 8 km
1000 à 3000 ft
1500m à 5 km
500 à 1000 ft
800 à 1500m
200 à 500 ft
< 800m
< 200 ft
Symboles :   Orages  Brouillard  Fortes neiges  Fortes précipitations  Vent > 20 kt
SIGMETs :   Divers  Orages  Givrage  Turbulence  Onde Orograph.  Cendres Volcan.







- Altitude de l'aérodrome : 267 ft


EGDR - Culdrose Navy

DERNIER METAR :
  • 131232Z 26018G34KT 3000 SHRA FEW004 SCT006 BKN010 FEW018CB 10/09 Q0999 YLO1 NOSIG

METARs EXPIRÉS :
  • 131150Z 27017G27KT 9999 -SHRA FEW007 BKN012 BKN020 10/09 Q1000 GRN TEMPO 3000 SHRA SCT004 YLO2
  • 131050Z 25013G29KT 9999 -RA FEW004 BKN007 BKN035 10/10 Q1000 REDZ GRN TEMPO 3000 SHRA SCT004 YLO2

TAF TAF EGDR
Valide du 13 à 12h jusqu'au 13 à 21h UTC


131150Z 1312/1321 26020G30KT 9999 FEW007 SCT012 BKN022TCU
TEMPO 1312/1313 3000 +SHRA SCT004 BKN015TCU
BECMG 1312/1315 29025G35KT FEW020 SCT050
TEMPO 1312/1321 6000 SHRA SCT012 BKN020TCU
BECMG 1316/1318 29040G50KT
TEMPO 1316/1319 29045G60KT 2500 +SHRAGS SCT007 BKN015CB
Pas de NOTAMs connus pour ce terrain.



MET'MAP, la Météo Aéronautique d'un coup d'oeil ! - Copyright ORBIFLY Décembre 2007 - Disclaimer

ORBIFLY MET'MAP TEAM :

Programmation & Développement : Alexandra Zaïnal
Conception & Développement : Baudouin d'Aumeries
Co-Programmation & Développement : Marc-Olivier Méhu
Soutien technique & logistique : Manuel Goepfert

Contact : metmap@orbifly.com




SOURCES & CREDITS :

   NOAA